createdAt,value
2023-02-01T00:00:38.682Z,6.63
2023-02-01T00:03:41.983Z,6.64
2023-02-01T00:06:46.368Z,6.67
2023-02-01T00:09:49.413Z,6.65
2023-02-01T00:12:52.664Z,6.69
2023-02-01T00:15:55.610Z,6.70
2023-02-01T00:19:02.962Z,6.67
2023-02-01T00:22:07.451Z,6.64
2023-02-01T00:25:10.961Z,6.70
2023-02-01T00:28:14.849Z,6.75
2023-02-01T00:31:18.110Z,6.59
2023-02-01T00:34:21.766Z,6.71
2023-02-01T00:37:26.196Z,6.76
2023-02-01T00:40:29.297Z,6.74
2023-02-01T00:43:33.232Z,6.74
2023-02-01T00:46:37.861Z,6.75
2023-02-01T00:49:41.201Z,6.64
2023-02-01T00:52:45.581Z,6.72
2023-02-01T00:55:49.294Z,6.73
2023-02-01T00:58:52.615Z,6.75
2023-02-01T01:01:55.787Z,6.73
2023-02-01T01:04:59.259Z,6.78
2023-02-01T01:08:03.319Z,6.75
2023-02-01T01:11:08.040Z,6.79
2023-02-01T01:14:11.545Z,6.74
2023-02-01T01:17:14.184Z,6.67
2023-02-01T01:20:17.671Z,6.64
2023-02-01T01:23:21.679Z,6.65
2023-02-01T01:26:26.803Z,6.57
2023-02-01T01:29:29.611Z,6.57
2023-02-01T01:32:32.261Z,6.55
2023-02-01T01:35:35.409Z,6.51
2023-02-01T01:38:39.968Z,6.51
2023-02-01T01:41:42.625Z,6.49
2023-02-01T01:45:04.723Z,6.48
2023-02-01T01:48:11.693Z,6.50
2023-02-01T01:51:19.241Z,6.57
2023-02-01T01:54:30.897Z,6.55
2023-02-01T01:57:37.608Z,6.59
2023-02-01T02:00:41.815Z,6.58
2023-02-01T02:03:46.515Z,6.61
2023-02-01T02:06:56.570Z,6.65
2023-02-01T02:10:01.597Z,6.69
2023-02-01T02:13:04.512Z,6.69
2023-02-01T02:16:38.674Z,6.74
2023-02-01T02:20:12.456Z,6.74
2023-02-01T02:23:46.879Z,6.78
2023-02-01T02:27:23.858Z,6.77
2023-02-01T02:31:01.849Z,6.74
2023-02-01T02:34:16.946Z,6.73
2023-02-01T02:37:28.765Z,6.76
2023-02-01T02:40:38.888Z,6.77
2023-02-01T02:44:05.653Z,6.78
2023-02-01T02:47:28.638Z,6.73
2023-02-01T02:50:56.577Z,6.80
2023-02-01T02:54:27.179Z,6.83
2023-02-01T02:57:51.579Z,6.81
2023-02-01T03:01:12.859Z,6.76
2023-02-01T03:04:19.014Z,6.80
2023-02-01T03:07:55.416Z,6.76
2023-02-01T03:11:02.057Z,6.79
2023-02-01T03:14:07.438Z,6.86
2023-02-01T03:17:16.591Z,6.76
2023-02-01T03:20:21.911Z,6.71
2023-02-01T03:23:32.401Z,6.70
2023-02-01T03:26:39.699Z,6.73
2023-02-01T03:29:47.760Z,6.77
2023-02-01T03:33:00.095Z,6.73
2023-02-01T03:36:11.843Z,6.73
2023-02-01T03:39:19.624Z,6.80
2023-02-01T03:42:29.412Z,6.71
2023-02-01T03:45:40.077Z,6.83
2023-02-01T03:48:43.434Z,6.65
2023-02-01T03:51:46.370Z,6.68
2023-02-01T03:54:51.659Z,6.70
2023-02-01T03:57:59.075Z,6.46
2023-02-01T04:01:02.158Z,6.35
2023-02-01T04:04:05.329Z,6.13
2023-02-01T04:07:08.110Z,5.59
2023-02-01T04:10:13.925Z,5.54
2023-02-01T04:13:16.714Z,5.33
2023-02-01T04:16:19.417Z,5.53
2023-02-01T04:19:22.130Z,5.23
2023-02-01T04:22:25.005Z,5.20
2023-02-01T04:25:29.032Z,5.27
2023-02-01T04:28:32.356Z,5.31
2023-02-01T04:31:37.522Z,5.34
2023-02-01T04:34:40.286Z,5.35
2023-02-01T04:37:42.929Z,5.40
2023-02-01T04:40:49.323Z,5.35
2023-02-01T04:43:53.450Z,5.30
2023-02-01T04:46:56.175Z,5.23
2023-02-01T04:49:58.804Z,5.27
2023-02-01T04:53:01.872Z,5.14
2023-02-01T04:56:07.340Z,5.28
2023-02-01T04:59:13.672Z,5.29
2023-02-01T05:02:16.767Z,5.37
2023-02-01T05:05:19.457Z,5.51
2023-02-01T05:08:23.708Z,5.41
2023-02-01T05:11:45.079Z,5.34
2023-02-01T05:14:48.791Z,5.32
2023-02-01T05:17:51.438Z,5.37
2023-02-01T05:20:54.151Z,5.37
2023-02-01T05:24:13.795Z,5.40
2023-02-01T05:27:17.841Z,5.38
2023-02-01T05:30:20.823Z,5.42
2023-02-01T05:33:24.346Z,5.45
2023-02-01T05:36:27.623Z,5.47
2023-02-01T05:39:30.323Z,5.51
2023-02-01T05:42:34.375Z,5.53
2023-02-01T05:45:37.067Z,5.50
2023-02-01T05:48:39.776Z,5.48
2023-02-01T05:51:42.427Z,5.47
2023-02-01T05:54:45.095Z,5.48
2023-02-01T05:57:49.136Z,5.47
2023-02-01T06:00:52.011Z,5.48
2023-02-01T06:03:54.726Z,5.54
2023-02-01T06:06:57.427Z,5.50
2023-02-01T06:10:00.100Z,5.50
2023-02-01T06:13:04.902Z,5.50
2023-02-01T06:16:08.916Z,5.48
2023-02-01T06:19:11.616Z,5.53
2023-02-01T06:22:14.383Z,5.52
2023-02-01T06:25:17.764Z,5.59
2023-02-01T06:28:22.606Z,5.58
2023-02-01T06:31:26.245Z,5.59
2023-02-01T06:34:29.099Z,5.62
2023-02-01T06:37:31.776Z,5.64
2023-02-01T06:40:34.568Z,5.66
2023-02-01T06:43:38.957Z,5.68
2023-02-01T06:46:42.238Z,5.63
2023-02-01T06:49:44.945Z,5.65
2023-02-01T06:52:47.990Z,5.65
2023-02-01T06:55:55.317Z,5.63
2023-02-01T06:58:59.378Z,5.71
2023-02-01T07:02:02.045Z,5.74
2023-02-01T07:05:05.436Z,5.73
2023-02-01T07:08:08.571Z,5.70
2023-02-01T07:11:13.372Z,5.75
2023-02-01T07:14:17.549Z,5.80
2023-02-01T07:17:20.226Z,5.75
2023-02-01T07:20:23.347Z,5.80
2023-02-01T07:23:26.815Z,5.89
2023-02-01T07:26:29.484Z,5.86
2023-02-01T07:29:33.767Z,5.85
2023-02-01T07:32:36.524Z,5.82
2023-02-01T07:35:39.379Z,5.72
2023-02-01T07:38:42.088Z,5.65
2023-02-01T07:41:44.868Z,5.48
2023-02-01T07:44:48.863Z,5.37
2023-02-01T07:47:53.995Z,5.31
2023-02-01T07:51:00.595Z,5.31
2023-02-01T07:54:03.650Z,5.23
2023-02-01T07:57:06.280Z,5.26
2023-02-01T08:00:29.395Z,5.08
2023-02-01T08:03:32.098Z,5.03
2023-02-01T08:06:36.009Z,4.95
2023-02-01T08:09:38.673Z,4.95
2023-02-01T08:12:42.764Z,4.90
2023-02-01T08:15:46.795Z,5.04
2023-02-01T08:18:49.564Z,5.06
2023-02-01T08:21:52.245Z,5.11
2023-02-01T08:25:02.184Z,5.21
2023-02-01T08:28:05.123Z,5.22
2023-02-01T08:31:11.750Z,5.33
2023-02-01T08:34:14.401Z,5.43
2023-02-01T08:37:17.087Z,5.60
2023-02-01T08:40:20.246Z,5.64
2023-02-01T08:43:22.935Z,5.76
2023-02-01T08:46:27.385Z,5.89
2023-02-01T08:49:30.083Z,5.97
2023-02-01T08:52:32.893Z,6.03
2023-02-01T08:55:35.554Z,6.19
2023-02-01T08:58:38.360Z,6.34
2023-02-01T09:01:43.096Z,6.46
2023-02-01T09:04:45.918Z,6.59
2023-02-01T09:07:48.588Z,6.66
2023-02-01T09:10:51.446Z,6.77
2023-02-01T09:13:54.204Z,6.85
2023-02-01T09:16:58.284Z,6.87
2023-02-01T09:20:00.998Z,6.89
2023-02-01T09:23:03.651Z,6.97
2023-02-01T09:26:07.875Z,7.05
2023-02-01T09:29:12.066Z,7.09
2023-02-01T09:32:16.203Z,7.14
2023-02-01T09:35:19.015Z,7.14
2023-02-01T09:38:21.753Z,7.24
2023-02-01T09:41:45.153Z,7.35
2023-02-01T09:45:01.590Z,7.48
2023-02-01T09:48:15.275Z,7.56
2023-02-01T09:51:24.424Z,7.66
2023-02-01T09:54:30.851Z,7.75
2023-02-01T09:57:47.730Z,7.70
2023-02-01T10:00:54.335Z,7.71
2023-02-01T10:04:04.620Z,7.65
2023-02-01T10:07:15.611Z,7.53
2023-02-01T10:10:27.624Z,7.49
2023-02-01T10:13:47.663Z,7.44
2023-02-01T10:16:56.402Z,7.34
2023-02-01T10:20:10.030Z,7.23
2023-02-01T10:23:34.435Z,7.20
2023-02-01T10:26:40.102Z,7.10
2023-02-01T10:29:46.871Z,7.20
2023-02-01T10:32:54.037Z,7.31
2023-02-01T10:36:05.873Z,7.30
2023-02-01T10:39:13.082Z,7.26
2023-02-01T10:42:16.044Z,7.14
2023-02-01T10:45:21.370Z,7.20
2023-02-01T10:48:25.180Z,7.21
2023-02-01T10:51:32.758Z,7.43
2023-02-01T10:54:39.264Z,7.36
2023-02-01T10:57:42.060Z,7.35
2023-02-01T11:00:48.492Z,7.21
2023-02-01T11:03:57.403Z,7.15
2023-02-01T11:07:14.472Z,7.08
2023-02-01T11:10:37.017Z,7.14
2023-02-01T11:13:41.776Z,7.21
2023-02-01T11:16:50.739Z,7.31
2023-02-01T11:19:59.491Z,7.36
2023-02-01T11:23:04.460Z,7.49
2023-02-01T11:26:13.646Z,7.54
2023-02-01T11:29:21.354Z,7.47
2023-02-01T11:32:26.347Z,7.54
2023-02-01T11:35:32.523Z,7.63
2023-02-01T11:38:36.885Z,7.68
2023-02-01T11:41:44.662Z,7.79
2023-02-01T11:44:48.611Z,7.80
2023-02-01T11:47:54.895Z,7.89
2023-02-01T11:51:16.018Z,8.01
2023-02-01T11:54:32.260Z,8.05
2023-02-01T11:57:49.075Z,8.07
2023-02-01T12:01:07.278Z,7.97
2023-02-01T12:04:49.475Z,7.98
2023-02-01T12:08:04.851Z,7.90
2023-02-01T12:11:25.009Z,7.87
2023-02-01T12:14:41.357Z,7.81
2023-02-01T12:18:00.830Z,7.79
2023-02-01T12:21:08.662Z,7.78
2023-02-01T12:24:47.002Z,7.74
2023-02-01T12:28:17.960Z,7.77
2023-02-01T12:31:32.706Z,7.84
2023-02-01T12:34:52.765Z,7.97
2023-02-01T12:38:08.119Z,8.20
2023-02-01T12:41:23.892Z,8.29
2023-02-01T12:44:34.661Z,8.26
2023-02-01T12:47:42.324Z,8.25
2023-02-01T12:50:49.644Z,8.18
2023-02-01T12:53:54.625Z,8.13
2023-02-01T12:57:03.350Z,8.13
2023-02-01T13:00:24.664Z,8.13
2023-02-01T13:03:36.633Z,8.15
2023-02-01T13:06:44.501Z,8.17
2023-02-01T13:09:53.490Z,8.12
2023-02-01T13:13:01.738Z,8.14
2023-02-01T13:16:18.146Z,8.19
2023-02-01T13:19:26.661Z,8.16
2023-02-01T13:22:34.027Z,8.21
2023-02-01T13:25:41.907Z,8.26
2023-02-01T13:28:48.342Z,8.24
2023-02-01T13:32:18.181Z,8.16
2023-02-01T13:35:37.761Z,8.23
2023-02-01T13:39:27.506Z,8.22
2023-02-01T13:42:33.565Z,8.10
2023-02-01T13:45:43.878Z,8.03
2023-02-01T13:48:52.500Z,7.98
2023-02-01T13:51:57.405Z,7.94
2023-02-01T13:55:15.856Z,7.93
2023-02-01T13:58:22.039Z,7.91
2023-02-01T14:01:37.077Z,7.81
2023-02-01T14:04:52.347Z,7.89
2023-02-01T14:08:13.773Z,7.81
2023-02-01T14:11:42.667Z,7.85
2023-02-01T14:14:47.343Z,7.83
2023-02-01T14:17:50.350Z,7.83
2023-02-01T14:21:24.095Z,7.72
2023-02-01T14:24:29.667Z,7.76
2023-02-01T14:27:37.927Z,7.67
2023-02-01T14:30:44.449Z,7.74
2023-02-01T14:33:48.180Z,7.80
2023-02-01T14:37:00.503Z,7.74
2023-02-01T14:40:07.238Z,7.78
2023-02-01T14:43:32.595Z,7.82
2023-02-01T14:47:06.588Z,7.78
2023-02-01T14:50:27.168Z,7.76
2023-02-01T14:53:39.201Z,7.64
2023-02-01T14:56:42.340Z,7.79
2023-02-01T14:59:47.329Z,7.72
2023-02-01T15:02:51.668Z,7.82
2023-02-01T15:05:59.378Z,7.79
2023-02-01T15:09:09.747Z,7.72
2023-02-01T15:12:21.342Z,7.75
2023-02-01T15:15:27.333Z,7.77
2023-02-01T15:18:30.302Z,7.76
2023-02-01T15:21:33.352Z,7.77
2023-02-01T15:24:37.384Z,7.79
2023-02-01T15:27:40.239Z,7.79
2023-02-01T15:30:54.686Z,7.73
2023-02-01T15:34:00.601Z,7.76
2023-02-01T15:37:07.146Z,7.73
2023-02-01T15:40:25.062Z,7.67
2023-02-01T15:43:29.927Z,7.69
2023-02-01T15:46:36.607Z,7.65
2023-02-01T15:49:42.145Z,7.66
2023-02-01T15:52:45.249Z,7.60
2023-02-01T15:55:53.731Z,7.61
2023-02-01T15:59:00.367Z,7.58
2023-02-01T16:02:03.889Z,7.55
2023-02-01T16:05:08.706Z,7.52
2023-02-01T16:08:14.928Z,7.53
2023-02-01T16:11:28.511Z,7.53
2023-02-01T16:14:32.908Z,7.46
2023-02-01T16:17:35.572Z,7.52
2023-02-01T16:20:40.062Z,7.51
2023-02-01T16:23:42.741Z,7.48
2023-02-01T16:26:46.892Z,7.52
2023-02-01T16:29:49.693Z,7.50
2023-02-01T16:32:55.869Z,7.50
2023-02-01T16:36:01.228Z,7.50
2023-02-01T16:39:04.647Z,7.52
2023-02-01T16:42:13.851Z,7.46
2023-02-01T16:45:16.538Z,7.53
2023-02-01T16:48:23.890Z,7.49
2023-02-01T16:51:30.103Z,7.49
2023-02-01T16:54:32.806Z,7.53
2023-02-01T16:57:36.789Z,7.54
2023-02-01T17:00:39.607Z,7.52
2023-02-01T17:03:44.127Z,7.52
2023-02-01T17:06:50.758Z,7.52
2023-02-01T17:09:53.436Z,7.54
2023-02-01T17:12:58.482Z,7.56
2023-02-01T17:16:04.697Z,7.55
2023-02-01T17:19:12.141Z,7.53
2023-02-01T17:22:15.727Z,7.56
2023-02-01T17:25:20.208Z,7.52
2023-02-01T17:28:24.941Z,7.56
2023-02-01T17:31:27.785Z,7.42
2023-02-01T17:34:32.407Z,7.57
2023-02-01T17:37:36.628Z,7.56
2023-02-01T17:40:39.848Z,7.58
2023-02-01T17:43:44.795Z,7.56
2023-02-01T17:46:47.546Z,7.57
2023-02-01T17:49:56.824Z,7.59
2023-02-01T17:52:59.741Z,7.58
2023-02-01T17:56:02.572Z,7.58
2023-02-01T17:59:06.772Z,7.61
2023-02-01T18:02:19.815Z,7.59
2023-02-01T18:05:26.332Z,7.63
2023-02-01T18:08:33.297Z,7.56
2023-02-01T18:11:36.272Z,7.58
2023-02-01T18:14:40.305Z,7.52
2023-02-01T18:17:42.987Z,7.49
2023-02-01T18:20:47.199Z,7.51
2023-02-01T18:23:50.515Z,7.56
2023-02-01T18:26:53.237Z,7.60
2023-02-01T18:29:57.357Z,7.59
2023-02-01T18:33:00.355Z,7.61
2023-02-01T18:36:03.415Z,7.60
2023-02-01T18:39:06.150Z,7.60
2023-02-01T18:42:11.955Z,7.63
2023-02-01T18:45:25.952Z,7.44
2023-02-01T18:48:28.787Z,7.64
2023-02-01T18:51:31.391Z,7.63
2023-02-01T18:54:34.061Z,7.66
2023-02-01T18:57:37.695Z,7.67
2023-02-01T19:00:41.663Z,7.66
2023-02-01T19:03:48.161Z,7.68
2023-02-01T19:06:55.757Z,7.67
2023-02-01T19:09:58.809Z,7.63
2023-02-01T19:13:02.078Z,7.64
2023-02-01T19:16:09.591Z,7.61
2023-02-01T19:19:12.304Z,7.60
2023-02-01T19:22:15.079Z,7.54
2023-02-01T19:25:20.818Z,7.62
2023-02-01T19:28:24.100Z,7.62
2023-02-01T19:31:28.399Z,7.69
2023-02-01T19:34:31.624Z,7.64
2023-02-01T19:37:34.305Z,7.66
2023-02-01T19:40:36.956Z,7.67
2023-02-01T19:43:39.999Z,7.68
2023-02-01T19:46:44.031Z,7.65
2023-02-01T19:49:46.820Z,7.68
2023-02-01T19:52:49.627Z,7.67
2023-02-01T19:55:52.291Z,7.66
2023-02-01T19:58:55.344Z,7.67
2023-02-01T20:01:58.460Z,7.71
2023-02-01T20:05:01.359Z,7.69
2023-02-01T20:08:04.035Z,7.71
2023-02-01T20:11:07.674Z,7.72
2023-02-01T20:14:10.618Z,7.74
2023-02-01T20:17:17.663Z,7.74
2023-02-01T20:20:20.772Z,7.60
2023-02-01T20:23:23.496Z,7.75
2023-02-01T20:26:27.140Z,7.74
2023-02-01T20:29:29.756Z,7.70
2023-02-01T20:32:35.228Z,7.68
2023-02-01T20:35:37.859Z,7.69
2023-02-01T20:38:40.546Z,7.70
2023-02-01T20:41:43.622Z,7.65
2023-02-01T20:44:46.217Z,7.65
2023-02-01T20:47:52.672Z,7.67
2023-02-01T20:50:56.211Z,7.71
2023-02-01T20:53:58.844Z,7.71
2023-02-01T20:57:01.893Z,7.63
2023-02-01T21:00:08.059Z,7.68
2023-02-01T21:03:12.102Z,7.70
2023-02-01T21:06:14.738Z,7.64
2023-02-01T21:09:17.799Z,7.76
2023-02-01T21:12:20.809Z,7.67
2023-02-01T21:15:26.278Z,7.74
2023-02-01T21:18:32.096Z,7.79
2023-02-01T21:21:34.993Z,7.70
2023-02-01T21:24:37.662Z,7.72
2023-02-01T21:27:40.327Z,7.74
2023-02-01T21:30:42.964Z,7.73
2023-02-01T21:33:47.668Z,7.75
2023-02-01T21:36:50.290Z,7.79
2023-02-01T21:39:53.108Z,7.79
2023-02-01T21:42:55.773Z,7.78
2023-02-01T21:45:58.495Z,7.83
2023-02-01T21:49:04.627Z,7.79
2023-02-01T21:52:08.773Z,7.81
2023-02-01T21:55:11.673Z,7.81
2023-02-01T21:58:14.300Z,7.85
2023-02-01T22:01:17.066Z,7.82
2023-02-01T22:04:21.116Z,7.84
2023-02-01T22:07:23.837Z,7.80
2023-02-01T22:10:26.460Z,7.82
2023-02-01T22:13:29.293Z,7.80
2023-02-01T22:16:32.120Z,7.83
2023-02-01T22:19:36.162Z,7.81
2023-02-01T22:22:38.874Z,7.85
2023-02-01T22:25:41.505Z,7.85
2023-02-01T22:28:44.852Z,7.80
2023-02-01T22:31:47.960Z,7.88
2023-02-01T22:34:52.020Z,7.86
2023-02-01T22:37:54.627Z,7.89
2023-02-01T22:40:58.073Z,7.88
2023-02-01T22:44:02.168Z,7.85
2023-02-01T22:47:05.021Z,7.87
2023-02-01T22:50:10.567Z,7.90
2023-02-01T22:53:13.562Z,7.91
2023-02-01T22:56:17.214Z,7.91
2023-02-01T22:59:20.047Z,7.91
2023-02-01T23:02:22.691Z,7.92
2023-02-01T23:05:27.271Z,7.94
2023-02-01T23:08:30.124Z,7.87
2023-02-01T23:11:32.856Z,7.95
2023-02-01T23:14:55.532Z,7.94
2023-02-01T23:17:58.309Z,7.91
2023-02-01T23:21:06.200Z,7.92
2023-02-01T23:24:10.774Z,7.97
2023-02-01T23:27:13.407Z,7.96
2023-02-01T23:30:16.817Z,7.98
2023-02-01T23:33:23.234Z,7.89
2023-02-01T23:36:28.795Z,7.92
2023-02-01T23:39:33.104Z,7.90
2023-02-01T23:42:36.082Z,7.80
2023-02-01T23:45:38.760Z,7.83
2023-02-01T23:48:41.368Z,7.74
2023-02-01T23:51:47.474Z,7.70
2023-02-01T23:54:50.136Z,7.66
2023-02-01T23:57:52.750Z,7.58
